Time;durP1;ratioP1;P1;durP2;ratioP2;P2;SDS_P1;SDS_P2;PMS_P1;PMS_P2;Temp;Humidity;BMP_temperature;BMP_pressure;BME280_temperature;BME280_humidity;BME280_pressure;Samples;Min_cycle;Max_cycle;Signal;HPM_P1;HPM_P2
2021/10/30 00:00:18;;;;;;;5.90;5.30;;;;;;;;;;5029563;28;20178;-63
2021/10/30 00:03:10;;;;;;;6.37;5.30;;;;;;;;;;5030190;28;20166;-62
2021/10/30 00:05:36;;;;;;;6.50;5.80;;;;;;;;;;5028851;28;20192;-62
2021/10/30 00:08:02;;;;;;;5.90;5.40;;;;;;;;;;5049476;28;20647;-63
2021/10/30 00:10:29;;;;;;;5.90;5.30;;;;;;;;;;5049050;28;20173;-63
2021/10/30 00:12:55;;;;;;;8.67;4.97;;;;;;;;;;5048763;28;20177;-63
2021/10/30 00:15:22;;;;;;;6.43;4.93;;;;;;;;;;5049986;28;20217;-62
2021/10/30 00:17:48;;;;;;;5.83;5.23;;;;;;;;;;5048255;28;20243;-63
2021/10/30 00:20:26;;;;;;;5.80;5.20;;;;;;;;;;5048614;28;20184;-63
2021/10/30 00:22:52;;;;;;;5.47;4.97;;;;;;;;;;5048826;28;20593;-63
2021/10/30 00:25:22;;;;;;;5.70;5.10;;;;;;;;;;5050366;28;20197;-62
2021/10/30 00:27:48;;;;;;;4.90;4.47;;;;;;;;;;5049006;28;20719;-62
2021/10/30 00:30:14;;;;;;;5.53;4.70;;;;;;;;;;5050304;28;20649;-63
2021/10/30 00:32:40;;;;;;;5.33;4.83;;;;;;;;;;5049549;28;20184;-62
2021/10/30 00:35:06;;;;;;;5.47;4.73;;;;;;;;;;5048364;28;20197;-62
2021/10/30 00:37:32;;;;;;;6.57;5.00;;;;;;;;;;5049848;28;20537;-63
2021/10/30 00:39:58;;;;;;;5.07;4.50;;;;;;;;;;5049104;28;20169;-62
2021/10/30 00:42:24;;;;;;;5.93;4.70;;;;;;;;;;5050161;28;20180;-62
2021/10/30 00:44:50;;;;;;;5.70;5.10;;;;;;;;;;5065572;28;20643;-62
2021/10/30 00:47:19;;;;;;;5.63;5.10;;;;;;;;;;5068249;28;20628;-62
2021/10/30 00:49:46;;;;;;;5.50;4.77;;;;;;;;;;5067566;28;20336;-62
2021/10/30 00:52:13;;;;;;;6.57;5.37;;;;;;;;;;5067935;28;20173;-62
2021/10/30 00:54:41;;;;;;;6.10;5.33;;;;;;;;;;5069289;28;20230;-62
2021/10/30 00:57:07;;;;;;;5.63;5.13;;;;;;;;;;5049786;28;20173;-62
2021/10/30 00:59:34;;;;;;;6.07;4.43;;;;;;;;;;5048157;28;20177;-62
2021/10/30 01:02:00;;;;;;;5.80;5.30;;;;;;;;;;5048118;28;20535;-62
2021/10/30 01:04:32;;;;;;;6.33;5.27;;;;;;;;;;5048879;28;20492;-62
2021/10/30 01:07:08;;;;;;;8.00;5.37;;;;;;;;;;5047462;28;20249;-63
2021/10/30 01:09:35;;;;;;;5.63;5.13;;;;;;;;;;5047893;28;20659;-62
2021/10/30 01:12:04;;;;;;;6.17;4.73;;;;;;;;;;5049700;28;20184;-62
2021/10/30 01:14:31;;;;;;;5.63;5.03;;;;;;;;;;5047828;28;20216;-62
2021/10/30 01:17:02;;;;;;;5.60;4.87;;;;;;;;;;5047222;28;20687;-62
2021/10/30 01:19:41;;;;;;;6.23;5.30;;;;;;;;;;5047012;28;20175;-62
2021/10/30 01:22:10;;;;;;;5.53;4.60;;;;;;;;;;5047230;28;20590;-62
2021/10/30 01:24:42;;;;;;;8.63;5.60;;;;;;;;;;5047742;28;20170;-63
2021/10/30 01:27:11;;;;;;;5.23;4.73;;;;;;;;;;5047509;28;20177;-62
2021/10/30 01:29:38;;;;;;;5.60;5.10;;;;;;;;;;5027629;28;20174;-62
2021/10/30 01:32:07;;;;;;;5.63;5.13;;;;;;;;;;5027570;28;20660;-62
2021/10/30 01:34:34;;;;;;;7.30;5.30;;;;;;;;;;5026819;28;20190;-62
2021/10/30 01:37:00;;;;;;;5.57;4.97;;;;;;;;;;5027156;28;20225;-62
2021/10/30 01:39:26;;;;;;;5.10;4.60;;;;;;;;;;5029079;28;20625;-62
2021/10/30 01:41:52;;;;;;;7.30;4.80;;;;;;;;;;5027691;28;20196;-62
2021/10/30 01:44:18;;;;;;;6.43;5.00;;;;;;;;;;5052699;28;20181;-62
2021/10/30 01:46:44;;;;;;;5.20;4.70;;;;;;;;;;5068472;28;20625;-62
2021/10/30 01:49:14;;;;;;;6.50;5.17;;;;;;;;;;5067137;28;20204;-62
2021/10/30 01:51:41;;;;;;;5.63;4.80;;;;;;;;;;5066211;28;20175;-62
2021/10/30 01:54:07;;;;;;;5.30;4.80;;;;;;;;;;5066755;28;20195;-62
2021/10/30 01:56:33;;;;;;;7.10;4.60;;;;;;;;;;5068279;28;20180;-62
2021/10/30 01:59:03;;;;;;;5.57;4.67;;;;;;;;;;5060826;28;20185;-62
2021/10/30 02:01:29;;;;;;;5.47;5.00;;;;;;;;;;5046604;28;20549;-62
2021/10/30 02:03:56;;;;;;;4.60;4.20;;;;;;;;;;5046482;28;20197;-63
2021/10/30 02:06:22;;;;;;;5.33;4.83;;;;;;;;;;5045882;28;20211;-62
2021/10/30 02:08:48;;;;;;;5.67;4.77;;;;;;;;;;5046862;28;20198;-62
2021/10/30 02:11:15;;;;;;;5.23;4.37;;;;;;;;;;5047191;28;20648;-62
2021/10/30 02:13:42;;;;;;;4.93;4.53;;;;;;;;;;5048278;28;20175;-63
2021/10/30 02:16:10;;;;;;;5.10;4.57;;;;;;;;;;5046406;28;20249;-62
2021/10/30 02:18:40;;;;;;;5.00;4.50;;;;;;;;;;5046435;28;20230;-62
2021/10/30 02:21:06;;;;;;;6.43;4.73;;;;;;;;;;5046233;28;20242;-62
2021/10/30 02:23:35;;;;;;;6.03;4.27;;;;;;;;;;5046885;28;20203;-62
2021/10/30 02:26:14;;;;;;;5.07;4.57;;;;;;;;;;5047055;28;20236;-63
2021/10/30 02:28:43;;;;;;;5.33;4.40;;;;;;;;;;5046837;28;20761;-62
2021/10/30 02:31:14;;;;;;;8.13;4.73;;;;;;;;;;5047112;28;20315;-63
2021/10/30 02:33:40;;;;;;;5.30;4.73;;;;;;;;;;5046382;28;20682;-63
2021/10/30 02:36:10;;;;;;;6.47;4.50;;;;;;;;;;5046019;28;20343;-63
2021/10/30 02:38:36;;;;;;;4.90;4.47;;;;;;;;;;5046805;28;20188;-63
2021/10/30 02:41:05;;;;;;;5.60;4.60;;;;;;;;;;5046872;28;20616;-64
2021/10/30 02:43:34;;;;;;;5.47;4.90;;;;;;;;;;5054165;28;20626;-64
2021/10/30 02:46:01;;;;;;;5.73;4.47;;;;;;;;;;5066542;28;20237;-63
2021/10/30 02:48:27;;;;;;;5.17;4.40;;;;;;;;;;5067747;28;20168;-64
2021/10/30 02:50:54;;;;;;;6.37;4.90;;;;;;;;;;5066041;28;20723;-64
2021/10/30 02:53:20;;;;;;;4.80;4.40;;;;;;;;;;5068121;28;20177;-63
2021/10/30 02:55:46;;;;;;;5.00;4.50;;;;;;;;;;5060368;28;20200;-64
2021/10/30 02:58:12;;;;;;;6.67;4.07;;;;;;;;;;5047882;28;20173;-64
2021/10/30 03:00:38;;;;;;;5.17;4.27;;;;;;;;;;5046308;28;20710;-64
2021/10/30 03:03:07;;;;;;;5.83;4.50;;;;;;;;;;5050256;28;20164;-64
2021/10/30 03:05:33;;;;;;;5.23;3.93;;;;;;;;;;5049970;28;20177;-63
2021/10/30 03:07:59;;;;;;;4.93;4.30;;;;;;;;;;5051157;28;20287;-63
2021/10/30 03:10:26;;;;;;;4.33;3.67;;;;;;;;;;5050156;28;20185;-63
2021/10/30 03:12:52;;;;;;;5.77;4.43;;;;;;;;;;5049987;28;20177;-63
2021/10/30 03:15:18;;;;;;;5.70;4.27;;;;;;;;;;5051102;28;20407;-63
2021/10/30 03:17:53;;;;;;;4.10;3.70;;;;;;;;;;5049692;28;20177;-64
2021/10/30 03:20:20;;;;;;;4.20;3.80;;;;;;;;;;5050067;28;20310;-63
2021/10/30 03:22:46;;;;;;;4.70;3.43;;;;;;;;;;5049480;28;20184;-63
2021/10/30 03:25:12;;;;;;;4.87;4.37;;;;;;;;;;5050162;28;20234;-63
2021/10/30 03:27:39;;;;;;;4.97;4.13;;;;;;;;;;5046095;28;20181;-63
2021/10/30 03:30:08;;;;;;;6.40;3.97;;;;;;;;;;5031296;28;20221;-63
2021/10/30 03:32:34;;;;;;;6.17;4.30;;;;;;;;;;5029741;28;20213;-63
2021/10/30 03:37:47;;;;;;;4.07;3.63;;;;;;;;;;5029853;28;20239;-63
2021/10/30 03:40:13;;;;;;;5.10;4.70;;;;;;;;;;5031457;28;20166;-63
2021/10/30 03:42:39;;;;;;;4.10;3.70;;;;;;;;;;5031043;28;20174;-63
2021/10/30 03:45:06;;;;;;;4.40;4.00;;;;;;;;;;5067971;28;20263;-62
2021/10/30 03:47:32;;;;;;;4.40;3.70;;;;;;;;;;5069403;28;20184;-64
2021/10/30 03:50:01;;;;;;;4.83;4.30;;;;;;;;;;5069148;28;20658;-63
2021/10/30 03:52:30;;;;;;;4.33;3.63;;;;;;;;;;5071079;28;20506;-63
2021/10/30 03:54:56;;;;;;;4.10;3.50;;;;;;;;;;5069237;28;20180;-63
2021/10/30 03:57:22;;;;;;;5.03;3.93;;;;;;;;;;5070922;28;20195;-63
2021/10/30 03:59:49;;;;;;;5.00;3.30;;;;;;;;;;5071087;28;20596;-64
2021/10/30 04:02:15;;;;;;;7.90;5.80;;;;;;;;;;5069479;28;20200;-64
2021/10/30 04:04:41;;;;;;;6.00;3.90;;;;;;;;;;5069766;28;20165;-64
2021/10/30 04:07:08;;;;;;;4.57;4.17;;;;;;;;;;5058417;28;20177;-63
2021/10/30 04:09:34;;;;;;;5.53;4.43;;;;;;;;;;5049152;28;20185;-64
2021/10/30 04:12:00;;;;;;;4.37;3.97;;;;;;;;;;5050876;28;20181;-64
2021/10/30 04:14:33;;;;;;;6.23;5.07;;;;;;;;;;5050045;28;20663;-63
2021/10/30 04:17:06;;;;;;;6.10;3.73;;;;;;;;;;5048812;28;20204;-63
2021/10/30 04:19:32;;;;;;;4.93;4.33;;;;;;;;;;5048455;28;20757;-65
2021/10/30 04:21:58;;;;;;;5.67;4.07;;;;;;;;;;5049901;28;20173;-63
2021/10/30 04:24:25;;;;;;;6.80;4.50;;;;;;;;;;5048767;28;20581;-63
2021/10/30 04:26:51;;;;;;;6.00;4.30;;;;;;;;;;5048731;28;20697;-64
2021/10/30 04:29:17;;;;;;;5.60;5.10;;;;;;;;;;5032763;28;20166;-63
2021/10/30 04:31:48;;;;;;;5.60;4.40;;;;;;;;;;5030435;28;20532;-64
2021/10/30 04:34:18;;;;;;;4.90;4.30;;;;;;;;;;5028194;28;20192;-63
2021/10/30 04:37:02;;;;;;;5.67;4.30;;;;;;;;;;5028103;28;20708;-64
2021/10/30 04:39:28;;;;;;;5.60;5.10;;;;;;;;;;5030505;28;20715;-63
2021/10/30 04:41:54;;;;;;;4.40;4.00;;;;;;;;;;5030270;28;20166;-63
2021/10/30 04:44:26;;;;;;;6.17;5.03;;;;;;;;;;5055558;28;20188;-63
2021/10/30 04:46:52;;;;;;;4.93;4.33;;;;;;;;;;5069589;28;20188;-63
2021/10/30 04:49:27;;;;;;;4.77;4.37;;;;;;;;;;5067500;28;20176;-62
2021/10/30 04:51:56;;;;;;;7.43;4.23;;;;;;;;;;5067951;28;20176;-63
2021/10/30 04:54:23;;;;;;;5.73;4.90;;;;;;;;;;5068196;28;20172;-63
2021/10/30 04:56:49;;;;;;;5.03;4.47;;;;;;;;;;5049113;28;20206;-63
2021/10/30 04:59:21;;;;;;;5.93;4.57;;;;;;;;;;5028385;28;20174;-64
2021/10/30 05:01:47;;;;;;;5.10;4.60;;;;;;;;;;5028400;28;20201;-64
2021/10/30 05:04:13;;;;;;;4.43;4.03;;;;;;;;;;5029190;28;20228;-64
2021/10/30 05:06:40;;;;;;;4.63;4.23;;;;;;;;;;5028826;28;20178;-65
2021/10/30 05:09:09;;;;;;;8.47;4.90;;;;;;;;;;5029114;28;20641;-64
2021/10/30 05:11:36;;;;;;;5.73;4.57;;;;;;;;;;5028068;28;20196;-64
2021/10/30 05:14:05;;;;;;;5.27;4.47;;;;;;;;;;5029532;28;20174;-64
2021/10/30 05:16:31;;;;;;;6.07;4.53;;;;;;;;;;5028641;28;20229;-64
2021/10/30 05:19:01;;;;;;;4.30;3.80;;;;;;;;;;5027634;28;20177;-64
2021/10/30 05:21:34;;;;;;;6.13;4.37;;;;;;;;;;5027180;28;20178;-64
2021/10/30 05:24:00;;;;;;;5.53;4.10;;;;;;;;;;5027509;28;20185;-64
2021/10/30 05:26:32;;;;;;;6.23;4.17;;;;;;;;;;5027203;28;20672;-64
2021/10/30 05:29:05;;;;;;;5.83;4.50;;;;;;;;;;5042431;28;20185;-64
2021/10/30 05:31:32;;;;;;;5.73;4.53;;;;;;;;;;5047777;28;20699;-64
2021/10/30 05:33:58;;;;;;;5.67;5.00;;;;;;;;;;5048583;28;20180;-63
2021/10/30 05:36:27;;;;;;;4.40;4.00;;;;;;;;;;5047821;28;20575;-64
2021/10/30 05:38:54;;;;;;;5.37;4.20;;;;;;;;;;5047655;28;20542;-63
2021/10/30 05:41:20;;;;;;;7.33;3.97;;;;;;;;;;5047603;28;20719;-65
2021/10/30 05:43:46;;;;;;;7.47;4.37;;;;;;;;;;5055959;28;20176;-65
2021/10/30 05:46:13;;;;;;;5.43;4.90;;;;;;;;;;5068691;28;20169;-64
2021/10/30 05:48:39;;;;;;;5.03;4.53;;;;;;;;;;5067505;28;20777;-65
2021/10/30 05:51:05;;;;;;;4.23;3.93;;;;;;;;;;5067892;28;20624;-63
2021/10/30 05:53:32;;;;;;;6.53;4.93;;;;;;;;;;5068765;28;20176;-63
2021/10/30 05:55:58;;;;;;;9.07;4.27;;;;;;;;;;5066689;28;20200;-63
2021/10/30 05:58:24;;;;;;;5.93;4.20;;;;;;;;;;5068869;28;20180;-62
2021/10/30 06:00:51;;;;;;;5.30;4.73;;;;;;;;;;5068546;28;20176;-63
2021/10/30 06:03:17;;;;;;;7.53;4.47;;;;;;;;;;5068398;28;20179;-62
2021/10/30 06:05:43;;;;;;;5.43;4.73;;;;;;;;;;5066562;28;20241;-63
2021/10/30 06:08:10;;;;;;;5.53;4.30;;;;;;;;;;5026798;28;20281;-62
2021/10/30 06:10:37;;;;;;;4.80;4.40;;;;;;;;;;5027308;28;20181;-63
2021/10/30 06:13:03;;;;;;;6.30;3.90;;;;;;;;;;5027133;28;20212;-63
2021/10/30 06:15:32;;;;;;;7.00;4.80;;;;;;;;;;5026614;28;20228;-63
2021/10/30 06:18:02;;;;;;;4.47;3.47;;;;;;;;;;5028072;28;20252;-63
2021/10/30 06:20:29;;;;;;;7.10;4.10;;;;;;;;;;5026538;28;20213;-62
2021/10/30 06:23:01;;;;;;;5.67;3.90;;;;;;;;;;5026622;28;20543;-63
2021/10/30 06:25:46;;;;;;;4.97;4.07;;;;;;;;;;5027103;28;20228;-63
2021/10/30 06:28:15;;;;;;;5.83;5.17;;;;;;;;;;5027529;28;20197;-63
2021/10/30 06:30:41;;;;;;;4.97;4.20;;;;;;;;;;5026972;28;20192;-62
2021/10/30 06:33:14;;;;;;;6.03;4.53;;;;;;;;;;5028058;28;20616;-62
2021/10/30 06:35:54;;;;;;;5.33;4.03;;;;;;;;;;5026439;28;20236;-62
2021/10/30 06:38:32;;;;;;;4.40;3.57;;;;;;;;;;5030233;28;20177;-61
2021/10/30 06:41:00;;;;;;;4.67;4.27;;;;;;;;;;5030915;28;20222;-62
2021/10/30 06:43:26;;;;;;;5.27;3.87;;;;;;;;;;5041829;28;20179;-62
2021/10/30 06:45:52;;;;;;;4.20;3.80;;;;;;;;;;5070745;28;20634;-62
2021/10/30 06:48:18;;;;;;;4.57;4.17;;;;;;;;;;5070490;28;20180;-62
2021/10/30 06:50:45;;;;;;;5.23;4.40;;;;;;;;;;5071252;28;20259;-62
2021/10/30 06:53:12;;;;;;;4.17;3.77;;;;;;;;;;5070525;28;20181;-60
2021/10/30 06:55:41;;;;;;;5.20;4.20;;;;;;;;;;5064295;28;20607;-63
2021/10/30 06:58:07;;;;;;;5.43;3.50;;;;;;;;;;5050655;28;20177;-63
2021/10/30 07:00:34;;;;;;;5.27;3.63;;;;;;;;;;5050429;28;20169;-62
2021/10/30 07:03:00;;;;;;;4.47;3.70;;;;;;;;;;5050014;28;20196;-62
2021/10/30 07:05:30;;;;;;;4.93;4.37;;;;;;;;;;5049912;28;20551;-63
2021/10/30 07:08:06;;;;;;;4.07;3.67;;;;;;;;;;5049919;28;20173;-62
2021/10/30 07:10:36;;;;;;;4.57;4.17;;;;;;;;;;5050358;28;20643;-62
2021/10/30 07:13:02;;;;;;;4.90;4.37;;;;;;;;;;5050304;28;20724;-62
2021/10/30 07:15:28;;;;;;;4.37;3.97;;;;;;;;;;5050092;28;20686;-63
2021/10/30 07:17:54;;;;;;;4.70;4.17;;;;;;;;;;5051069;28;20655;-63
2021/10/30 07:20:20;;;;;;;4.50;3.77;;;;;;;;;;5049855;28;20181;-62
2021/10/30 07:22:47;;;;;;;4.20;3.80;;;;;;;;;;5051169;28;20169;-63
2021/10/30 07:25:14;;;;;;;4.30;3.90;;;;;;;;;;5051539;28;20193;-62
2021/10/30 07:27:43;;;;;;;4.80;3.87;;;;;;;;;;5051175;28;20690;-62
2021/10/30 07:30:11;;;;;;;5.17;3.97;;;;;;;;;;5050626;28;20185;-63
2021/10/30 07:32:37;;;;;;;4.83;3.77;;;;;;;;;;5049576;28;20181;-63
2021/10/30 07:35:03;;;;;;;4.20;3.80;;;;;;;;;;5049709;28;20239;-63
2021/10/30 07:37:30;;;;;;;4.70;4.10;;;;;;;;;;5049381;28;20223;-62
2021/10/30 07:40:00;;;;;;;4.47;3.80;;;;;;;;;;5051372;28;20507;-63
2021/10/30 07:42:29;;;;;;;4.23;3.83;;;;;;;;;;5051198;28;20173;-62
2021/10/30 07:45:00;;;;;;;7.77;3.77;;;;;;;;;;5067561;28;20173;-62
2021/10/30 07:47:26;;;;;;;5.00;3.90;;;;;;;;;;5069079;28;20169;-63
2021/10/30 07:49:58;;;;;;;4.60;3.90;;;;;;;;;;5069262;28;20942;-63
2021/10/30 07:52:25;;;;;;;4.63;4.00;;;;;;;;;;5069665;28;20177;-62
2021/10/30 07:54:51;;;;;;;5.07;4.17;;;;;;;;;;5069402;28;20188;-62
2021/10/30 07:57:18;;;;;;;4.60;4.00;;;;;;;;;;5069352;28;20208;-62
2021/10/30 07:59:45;;;;;;;4.97;3.93;;;;;;;;;;5071056;28;20177;-62
2021/10/30 08:02:12;;;;;;;5.10;4.27;;;;;;;;;;5070695;28;20165;-62
2021/10/30 08:04:38;;;;;;;5.27;4.60;;;;;;;;;;5069062;28;20172;-62
2021/10/30 08:07:06;;;;;;;4.93;4.20;;;;;;;;;;5057420;28;20192;-62
2021/10/30 08:09:32;;;;;;;7.40;4.33;;;;;;;;;;5049202;28;20235;-62
2021/10/30 08:11:59;;;;;;;4.80;4.27;;;;;;;;;;5049086;28;20272;-62
2021/10/30 08:14:25;;;;;;;4.67;4.17;;;;;;;;;;5049190;28;20177;-62
2021/10/30 08:16:52;;;;;;;6.90;4.30;;;;;;;;;;5048414;28;20225;-62
2021/10/30 08:19:19;;;;;;;5.33;4.83;;;;;;;;;;5048304;28;20269;-62
2021/10/30 08:21:45;;;;;;;5.07;4.20;;;;;;;;;;5048118;28;20218;-62
2021/10/30 08:24:11;;;;;;;4.77;4.37;;;;;;;;;;5048928;28;20194;-61
2021/10/30 08:26:37;;;;;;;6.57;4.67;;;;;;;;;;5050211;28;20196;-61
2021/10/30 08:29:08;;;;;;;4.37;3.97;;;;;;;;;;5050067;28;20197;-62
2021/10/30 08:31:34;;;;;;;7.30;4.50;;;;;;;;;;5032650;28;20220;-62
2021/10/30 08:34:01;;;;;;;6.47;4.57;;;;;;;;;;5048198;28;20250;-62
2021/10/30 08:36:28;;;;;;;7.63;4.90;;;;;;;;;;5048772;28;20197;-63
2021/10/30 08:38:54;;;;;;;7.40;4.23;;;;;;;;;;5048919;28;20187;-62
2021/10/30 08:41:22;;;;;;;4.97;4.47;;;;;;;;;;5048509;28;20181;-63
2021/10/30 08:43:49;;;;;;;5.53;4.07;;;;;;;;;;5057142;28;20184;-63
2021/10/30 08:46:16;;;;;;;4.03;3.73;;;;;;;;;;5068462;28;20578;-63
2021/10/30 08:48:45;;;;;;;5.50;4.53;;;;;;;;;;5069649;28;20176;-64
2021/10/30 08:51:11;;;;;;;4.73;4.33;;;;;;;;;;5067572;28;20185;-63
2021/10/30 08:53:40;;;;;;;5.03;4.53;;;;;;;;;;5068216;28;20184;-63
2021/10/30 08:56:08;;;;;;;4.90;4.40;;;;;;;;;;5058002;28;20679;-63
2021/10/30 08:58:35;;;;;;;4.77;4.30;;;;;;;;;;5048302;28;20868;-63
2021/10/30 09:01:03;;;;;;;4.90;4.50;;;;;;;;;;5047017;28;20169;-63
2021/10/30 09:03:29;;;;;;;4.83;4.40;;;;;;;;;;5049304;28;20248;-63
2021/10/30 09:06:02;;;;;;;5.40;4.57;;;;;;;;;;5047264;28;20177;-63
2021/10/30 09:08:29;;;;;;;4.77;4.37;;;;;;;;;;5048109;28;20185;-64
2021/10/30 09:10:57;;;;;;;5.10;4.60;;;;;;;;;;5047835;28;20172;-64
2021/10/30 09:13:31;;;;;;;5.07;4.57;;;;;;;;;;5047621;28;20636;-64
2021/10/30 09:15:59;;;;;;;6.83;4.67;;;;;;;;;;5046960;28;20801;-64
2021/10/30 09:18:36;;;;;;;11.30;4.87;;;;;;;;;;5048942;28;20169;-63
2021/10/30 09:21:12;;;;;;;6.83;4.50;;;;;;;;;;5048229;28;20177;-64
2021/10/30 09:23:41;;;;;;;6.17;5.33;;;;;;;;;;5047992;28;20175;-64
2021/10/30 09:26:09;;;;;;;6.80;4.63;;;;;;;;;;5047623;28;20204;-64
2021/10/30 09:28:37;;;;;;;5.07;4.57;;;;;;;;;;5044335;28;20193;-64
2021/10/30 09:31:05;;;;;;;4.83;4.33;;;;;;;;;;5027825;28;20554;-63
2021/10/30 09:33:33;;;;;;;5.57;4.80;;;;;;;;;;5027424;28;20211;-63
2021/10/30 09:36:08;;;;;;;4.87;4.37;;;;;;;;;;5026888;28;20229;-64
2021/10/30 09:38:36;;;;;;;5.00;4.40;;;;;;;;;;5028007;28;20240;-63
2021/10/30 09:41:22;;;;;;;5.50;4.37;;;;;;;;;;5027734;28;20196;-64
2021/10/30 09:44:02;;;;;;;5.93;4.90;;;;;;;;;;5044471;28;20173;-64
2021/10/30 09:46:34;;;;;;;6.03;4.60;;;;;;;;;;5067419;28;20182;-64
2021/10/30 09:49:11;;;;;;;5.23;4.50;;;;;;;;;;5067022;28;20398;-64
2021/10/30 09:51:38;;;;;;;4.83;4.20;;;;;;;;;;5067019;28;20175;-63
2021/10/30 09:54:05;;;;;;;5.20;4.67;;;;;;;;;;5067379;28;20184;-64
2021/10/30 09:56:38;;;;;;;5.80;4.43;;;;;;;;;;5053501;28;20205;-63
2021/10/30 09:59:06;;;;;;;5.70;4.50;;;;;;;;;;5047042;28;20173;-64
2021/10/30 10:01:34;;;;;;;6.33;4.83;;;;;;;;;;5047204;28;20192;-63
2021/10/30 10:04:06;;;;;;;4.77;4.27;;;;;;;;;;5046541;28;20835;-64
2021/10/30 10:06:43;;;;;;;5.07;4.57;;;;;;;;;;5046233;28;20527;-64
2021/10/30 10:09:11;;;;;;;5.33;4.83;;;;;;;;;;5048474;28;20180;-63
2021/10/30 10:11:39;;;;;;;4.80;4.30;;;;;;;;;;5047393;28;20184;-63
2021/10/30 10:14:10;;;;;;;5.90;4.40;;;;;;;;;;5048447;28;20174;-63
2021/10/30 10:16:40;;;;;;;4.97;4.47;;;;;;;;;;5046641;28;20565;-64
2021/10/30 10:19:07;;;;;;;4.90;4.37;;;;;;;;;;5046594;28;20660;-63
2021/10/30 10:21:34;;;;;;;5.33;4.10;;;;;;;;;;5046508;28;20427;-63
2021/10/30 10:24:02;;;;;;;6.63;4.70;;;;;;;;;;5047248;28;20188;-63
2021/10/30 10:26:49;;;;;;;5.83;4.93;;;;;;;;;;5046856;28;20223;-63
2021/10/30 10:29:36;;;;;;;5.87;5.27;;;;;;;;;;5043556;28;20217;-63
2021/10/30 10:32:05;;;;;;;5.33;4.57;;;;;;;;;;5026946;28;20544;-64
2021/10/30 10:34:39;;;;;;;4.90;4.37;;;;;;;;;;5026245;28;20186;-63
2021/10/30 10:37:11;;;;;;;7.77;4.80;;;;;;;;;;5027842;28;20263;-63
2021/10/30 10:39:39;;;;;;;5.70;4.27;;;;;;;;;;5026825;28;20201;-63
2021/10/30 10:42:05;;;;;;;6.90;4.70;;;;;;;;;;5026968;28;20174;-63
2021/10/30 10:44:36;;;;;;;4.77;4.20;;;;;;;;;;5056947;28;20386;-63
2021/10/30 10:47:02;;;;;;;6.77;4.70;;;;;;;;;;5068240;28;20165;-63
2021/10/30 10:49:49;;;;;;;6.43;4.77;;;;;;;;;;5066134;28;20683;-63
2021/10/30 10:54:53;;;;;;;5.00;4.43;;;;;;;;;;5068545;28;20240;-63
2021/10/30 10:57:26;;;;;;;9.57;5.03;;;;;;;;;;5066544;28;20848;-63
2021/10/30 11:00:05;;;;;;;5.70;4.70;;;;;;;;;;5068445;28;20169;-64
2021/10/30 11:02:35;;;;;;;5.27;4.50;;;;;;;;;;5067980;28;20218;-63
2021/10/30 11:05:21;;;;;;;5.00;4.60;;;;;;;;;;5067664;28;20952;-63
2021/10/30 11:07:47;;;;;;;6.07;4.90;;;;;;;;;;5022183;28;20649;-63
2021/10/30 11:10:14;;;;;;;5.93;4.80;;;;;;;;;;5027939;28;20178;-63
2021/10/30 11:13:02;;;;;;;5.20;4.33;;;;;;;;;;5028121;28;20214;-63
2021/10/30 11:15:48;;;;;;;6.30;4.60;;;;;;;;;;5027914;28;20225;-63
2021/10/30 11:18:28;;;;;;;5.27;4.77;;;;;;;;;;5026303;28;20212;-65
2021/10/30 11:21:12;;;;;;;6.03;5.20;;;;;;;;;;5025970;28;20201;-64
2021/10/30 11:23:45;;;;;;;4.93;4.37;;;;;;;;;;5029906;28;20637;-64
2021/10/30 11:26:16;;;;;;;5.63;4.93;;;;;;;;;;5031210;28;20201;-63
2021/10/30 11:28:42;;;;;;;5.50;4.93;;;;;;;;;;5030138;28;20253;-63
2021/10/30 11:31:15;;;;;;;5.23;4.73;;;;;;;;;;5031732;28;20304;-64
2021/10/30 11:33:42;;;;;;;6.23;4.57;;;;;;;;;;5029612;28;20178;-63
2021/10/30 11:36:09;;;;;;;5.40;4.90;;;;;;;;;;5030390;28;20221;-65
2021/10/30 11:38:37;;;;;;;5.73;4.67;;;;;;;;;;5029963;28;20256;-64
2021/10/30 11:41:05;;;;;;;5.37;4.87;;;;;;;;;;5029917;28;20172;-64
2021/10/30 11:43:33;;;;;;;5.90;5.03;;;;;;;;;;5041852;28;20169;-64
2021/10/30 11:46:00;;;;;;;9.37;5.60;;;;;;;;;;5071112;28;20659;-64
2021/10/30 11:48:40;;;;;;;6.73;5.20;;;;;;;;;;5070753;28;20550;-64
2021/10/30 11:51:07;;;;;;;5.47;4.97;;;;;;;;;;5070383;28;20173;-64
2021/10/30 11:53:34;;;;;;;5.40;4.90;;;;;;;;;;5069634;28;20638;-63
2021/10/30 11:56:05;;;;;;;6.13;5.30;;;;;;;;;;5061767;28;20210;-63
2021/10/30 11:58:35;;;;;;;8.00;5.93;;;;;;;;;;5051058;28;20145;-65
2021/10/30 12:01:16;;;;;;;6.93;5.20;;;;;;;;;;5049850;28;20628;-60
2021/10/30 12:03:42;;;;;;;6.28;5.65;;;;;;;;;;5049575;28;20423;-64
2021/10/30 12:06:09;;;;;;;6.97;6.37;;;;;;;;;;5050290;28;20539;-58
2021/10/30 12:08:36;;;;;;;7.10;6.43;;;;;;;;;;5049437;28;20185;-63
2021/10/30 12:11:05;;;;;;;6.30;5.70;;;;;;;;;;5049495;28;20188;-62
2021/10/30 12:13:33;;;;;;;12.40;6.70;;;;;;;;;;5049248;28;20635;-63
2021/10/30 12:16:00;;;;;;;10.70;5.83;;;;;;;;;;5049914;28;20227;-63
2021/10/30 12:18:30;;;;;;;9.37;6.53;;;;;;;;;;5050296;28;20231;-63
2021/10/30 12:20:59;;;;;;;10.30;5.90;;;;;;;;;;5049346;28;20181;-64
2021/10/30 12:23:29;;;;;;;9.33;6.57;;;;;;;;;;5050537;28;20652;-63
2021/10/30 12:26:04;;;;;;;6.80;5.70;;;;;;;;;;5050594;28;20651;-63
2021/10/30 12:28:32;;;;;;;6.70;6.07;;;;;;;;;;5039676;28;20193;-62
2021/10/30 12:30:58;;;;;;;7.23;5.67;;;;;;;;;;5030600;28;20186;-62
2021/10/30 12:33:24;;;;;;;6.60;5.90;;;;;;;;;;5028711;28;20592;-61
2021/10/30 12:35:51;;;;;;;6.87;6.07;;;;;;;;;;5029592;28;20236;-61
2021/10/30 12:38:24;;;;;;;8.30;6.07;;;;;;;;;;5028588;28;20641;-61
2021/10/30 12:40:51;;;;;;;7.73;6.57;;;;;;;;;;5028788;28;20523;-62
2021/10/30 12:43:26;;;;;;;9.10;6.03;;;;;;;;;;5038602;28;20938;-61
2021/10/30 12:45:56;;;;;;;7.47;5.97;;;;;;;;;;5069966;28;20600;-61
2021/10/30 12:48:25;;;;;;;7.30;5.90;;;;;;;;;;5068203;28;20191;-61
2021/10/30 12:50:54;;;;;;;7.50;6.00;;;;;;;;;;5069677;28;20262;-62
2021/10/30 12:53:30;;;;;;;6.67;5.53;;;;;;;;;;5070012;28;20176;-61
2021/10/30 12:56:09;;;;;;;6.70;5.97;;;;;;;;;;5069781;28;20681;-61
2021/10/30 12:58:35;;;;;;;6.53;5.83;;;;;;;;;;5069879;28;20184;-62
2021/10/30 13:01:02;;;;;;;7.77;5.80;;;;;;;;;;5068137;28;20183;-62
2021/10/30 13:03:32;;;;;;;5.90;5.30;;;;;;;;;;5069288;28;20511;-62
2021/10/30 13:05:59;;;;;;;7.30;5.50;;;;;;;;;;5066576;28;20172;-61
2021/10/30 13:08:26;;;;;;;6.63;5.93;;;;;;;;;;5049627;28;20189;-60
2021/10/30 13:10:52;;;;;;;5.97;5.37;;;;;;;;;;5049540;28;20173;-61
2021/10/30 13:13:18;;;;;;;7.60;4.97;;;;;;;;;;5049862;28;20173;-61
2021/10/30 13:15:44;;;;;;;5.93;5.30;;;;;;;;;;5049157;28;20289;-61
2021/10/30 13:18:10;;;;;;;6.23;5.17;;;;;;;;;;5048973;28;20636;-62
2021/10/30 13:20:41;;;;;;;5.50;5.00;;;;;;;;;;5048880;28;20180;-62
2021/10/30 13:23:07;;;;;;;5.63;5.10;;;;;;;;;;5047630;28;20244;-62
2021/10/30 13:25:33;;;;;;;5.53;5.03;;;;;;;;;;5048027;28;20197;-61
2021/10/30 13:27:59;;;;;;;5.57;4.63;;;;;;;;;;5047810;28;20280;-62
2021/10/30 13:30:25;;;;;;;5.43;4.90;;;;;;;;;;5049336;28;20655;-61
2021/10/30 13:32:51;;;;;;;5.87;4.97;;;;;;;;;;5049067;28;20196;-60
2021/10/30 13:35:18;;;;;;;5.37;4.20;;;;;;;;;;5046994;28;20176;-60
2021/10/30 13:37:44;;;;;;;5.70;4.83;;;;;;;;;;5048510;28;20184;-60
2021/10/30 13:40:10;;;;;;;7.63;4.87;;;;;;;;;;5049314;28;20201;-60
2021/10/30 13:42:40;;;;;;;4.87;4.43;;;;;;;;;;5049233;28;20652;-60
2021/10/30 13:45:06;;;;;;;6.17;4.60;;;;;;;;;;5066471;28;20169;-60
2021/10/30 13:47:33;;;;;;;4.50;4.03;;;;;;;;;;5066944;28;20185;-60
2021/10/30 13:49:59;;;;;;;5.80;4.43;;;;;;;;;;5067258;28;20180;-60
2021/10/30 13:52:25;;;;;;;5.70;5.10;;;;;;;;;;5067531;28;20177;-60
2021/10/30 13:54:51;;;;;;;4.60;4.20;;;;;;;;;;5067418;28;20305;-60
2021/10/30 13:57:17;;;;;;;5.07;4.47;;;;;;;;;;5047617;28;20201;-60
2021/10/30 13:59:43;;;;;;;5.50;4.90;;;;;;;;;;5048690;28;20648;-60
2021/10/30 14:02:13;;;;;;;5.27;4.63;;;;;;;;;;5049074;28;20690;-60
2021/10/30 14:04:39;;;;;;;6.57;4.53;;;;;;;;;;5047776;28;20179;-61
2021/10/30 14:07:08;;;;;;;5.90;4.33;;;;;;;;;;5048320;28;20212;-62
2021/10/30 14:09:34;;;;;;;5.00;4.50;;;;;;;;;;5048609;28;20516;-60
2021/10/30 14:12:00;;;;;;;5.60;4.10;;;;;;;;;;5048600;28;20637;-60
2021/10/30 14:14:26;;;;;;;4.77;4.27;;;;;;;;;;5048636;28;20259;-61
2021/10/30 14:16:55;;;;;;;5.90;4.07;;;;;;;;;;5047717;28;20221;-61
2021/10/30 14:19:24;;;;;;;6.60;4.37;;;;;;;;;;5046773;28;20188;-60
2021/10/30 14:21:50;;;;;;;4.50;4.07;;;;;;;;;;5046695;28;20622;-60
2021/10/30 14:24:18;;;;;;;6.80;4.20;;;;;;;;;;5047183;28;20589;-60
2021/10/30 14:26:44;;;;;;;4.53;4.10;;;;;;;;;;5046685;28;20709;-60
2021/10/30 14:29:10;;;;;;;4.07;3.50;;;;;;;;;;5032231;28;20202;-60
2021/10/30 14:31:37;;;;;;;5.93;4.43;;;;;;;;;;5027308;28;20177;-60
2021/10/30 14:34:04;;;;;;;3.83;3.53;;;;;;;;;;5026764;28;20178;-60
2021/10/30 14:36:30;;;;;;;4.60;4.10;;;;;;;;;;5025960;28;20651;-60
2021/10/30 14:38:56;;;;;;;5.13;3.93;;;;;;;;;;5027059;28;20588;-60
2021/10/30 14:41:23;;;;;;;3.80;3.47;;;;;;;;;;5028341;28;20462;-60
2021/10/30 14:43:49;;;;;;;4.30;3.90;;;;;;;;;;5043988;28;20502;-60
2021/10/30 14:46:17;;;;;;;5.30;4.03;;;;;;;;;;5067963;28;20677;-60
2021/10/30 14:48:43;;;;;;;4.10;3.70;;;;;;;;;;5066262;28;20640;-60
2021/10/30 14:51:11;;;;;;;4.77;3.63;;;;;;;;;;5067252;28;20259;-60
2021/10/30 14:53:38;;;;;;;4.57;4.13;;;;;;;;;;5068479;28;20248;-61
2021/10/30 14:56:04;;;;;;;6.00;4.53;;;;;;;;;;5049992;28;20211;-61